Airfield :
LOGIN :

Register | Disclaimer

   EN    FR    IT 

 










Legend :    VFR   Marginal VFR   IFR   Intensive IFR   Very Intensive IFR
Visi :
Ceiling :
>= 8 km
>= 3000ft
5 to 8 km
1000 to 3000 ft
1500m to 5 km
500 to 1000 ft
800 to 1500m
200 to 500 ft
< 800m
< 200 ft
Symbols :   Thunderstorms  Fog  Heavy snow  Heavy precipitations  Wind > 20 kt
SIGMETs :     Misc.  Thunderstorms  Icing  Turbulence  Mountain Waves  Volcanic Ashes






- Airport Elevation : 529 ft
- IATA code : CHR


LFLX - Chateauroux

CURRENT METAR :
  • 190830Z AUTO 10009KT 050V120 CAVOK 24/17 Q1013 NOSIG

EXPIRED METARs :
  • 190800Z AUTO 07006KT 040V100 CAVOK 23/19 Q1013 NOSIG
  • 190730Z AUTO 07005KT 040V100 CAVOK 22/19 Q1013 NOSIG
  • 190700Z AUTO 06007KT CAVOK 21/19 Q1013 TEMPO VRB15G30KT 2500 TSRAGR BKN030CB
  • 190630Z AUTO 05008KT CAVOK 19/18 Q1014 TEMPO VRB15G30KT 2500 TSRAGR BKN030CB
  • 190600Z AUTO 01006KT CAVOK 18/17 Q1014 TEMPO VRB15G30KT 2500 TSRAGR BKN030CB

TAF AMD TAF LFLX
Valid from the 19 at 06:00 until the 20 at 12:00 UTC


190645Z 1906/2012 VRB04KT CAVOK
TEMPO 1912/1921 4000 SHRA BKN030CB
PROB40
TEMPO 1914/1918 22018G35KT 2500 -TSRAGR BKN040CB
TEMPO 2001/2008 BKN008
PROB30
TEMPO 2002/2007 BKN005



MET'MAP, your aeronautical weather chart ! - Copyright ORBIFLY December 2007 - Disclaimer

ORBIFLY MET'MAP TEAM :

Programming & Development : Alexandra Zaïnal
Concept & original design : Baudouin d'Aumeries
Assistance for programming : Marc-Olivier Méhu
Technical & hardware support : Manuel Goepfert

Contact : metmap@orbifly.com




SOURCES & CREDITS :

   NOAA